sensor_id;sensor_type;location;lat;lon;timestamp;P1;durP1;ratioP1;P2;durP2;ratioP2
43700;SDS011;58809;47.984;7.964;2022-07-22T00:01:56;11.68;;;10.57;;
43700;SDS011;58809;47.984;7.964;2022-07-22T00:04:58;12.90;;;10.55;;
43700;SDS011;58809;47.984;7.964;2022-07-22T00:07:59;11.68;;;10.48;;
43700;SDS011;58809;47.984;7.964;2022-07-22T00:11:01;11.50;;;10.40;;
43700;SDS011;58809;47.984;7.964;2022-07-22T00:14:03;13.38;;;10.93;;
43700;SDS011;58809;47.984;7.964;2022-07-22T00:17:04;12.90;;;11.02;;
43700;SDS011;58809;47.984;7.964;2022-07-22T00:20:06;15.00;;;11.02;;
43700;SDS011;58809;47.984;7.964;2022-07-22T00:23:09;13.57;;;11.00;;
43700;SDS011;58809;47.984;7.964;2022-07-22T00:26:10;12.75;;;11.18;;
43700;SDS011;58809;47.984;7.964;2022-07-22T00:29:12;13.23;;;10.52;;
43700;SDS011;58809;47.984;7.964;2022-07-22T00:32:14;12.05;;;10.70;;
43700;SDS011;58809;47.984;7.964;2022-07-22T00:35:15;11.27;;;10.23;;
43700;SDS011;58809;47.984;7.964;2022-07-22T00:38:17;11.93;;;10.73;;
43700;SDS011;58809;47.984;7.964;2022-07-22T00:41:19;12.48;;;11.27;;
43700;SDS011;58809;47.984;7.964;2022-07-22T00:44:21;11.48;;;10.20;;
43700;SDS011;58809;47.984;7.964;2022-07-22T00:47:23;12.52;;;10.63;;
43700;SDS011;58809;47.984;7.964;2022-07-22T00:50:24;13.30;;;11.95;;
43700;SDS011;58809;47.984;7.964;2022-07-22T00:53:26;13.60;;;11.35;;
43700;SDS011;58809;47.984;7.964;2022-07-22T00:56:28;12.50;;;11.25;;
43700;SDS011;58809;47.984;7.964;2022-07-22T00:59:30;11.68;;;10.55;;
43700;SDS011;58809;47.984;7.964;2022-07-22T01:02:31;11.82;;;10.63;;
43700;SDS011;58809;47.984;7.964;2022-07-22T01:05:33;11.35;;;10.25;;
43700;SDS011;58809;47.984;7.964;2022-07-22T01:08:34;11.93;;;10.77;;
43700;SDS011;58809;47.984;7.964;2022-07-22T01:11:36;12.30;;;10.48;;
43700;SDS011;58809;47.984;7.964;2022-07-22T01:14:38;13.88;;;10.88;;
43700;SDS011;58809;47.984;7.964;2022-07-22T01:17:39;12.73;;;11.52;;
43700;SDS011;58809;47.984;7.964;2022-07-22T01:20:41;14.15;;;11.52;;
43700;SDS011;58809;47.984;7.964;2022-07-22T01:23:44;12.70;;;11.23;;
43700;SDS011;58809;47.984;7.964;2022-07-22T01:26:45;12.35;;;11.18;;
43700;SDS011;58809;47.984;7.964;2022-07-22T01:29:47;12.57;;;11.27;;
43700;SDS011;58809;47.984;7.964;2022-07-22T01:32:49;12.65;;;11.25;;
43700;SDS011;58809;47.984;7.964;2022-07-22T01:35:51;12.20;;;10.45;;
43700;SDS011;58809;47.984;7.964;2022-07-22T01:38:53;11.90;;;10.75;;
43700;SDS011;58809;47.984;7.964;2022-07-22T01:41:55;11.85;;;10.63;;
43700;SDS011;58809;47.984;7.964;2022-07-22T01:44:56;12.30;;;10.75;;
43700;SDS011;58809;47.984;7.964;2022-07-22T01:47:58;12.27;;;10.88;;
43700;SDS011;58809;47.984;7.964;2022-07-22T01:51:00;13.05;;;11.25;;
43700;SDS011;58809;47.984;7.964;2022-07-22T01:54:02;12.63;;;10.85;;
43700;SDS011;58809;47.984;7.964;2022-07-22T01:57:05;14.05;;;10.02;;
43700;SDS011;58809;47.984;7.964;2022-07-22T02:00:07;12.15;;;10.77;;
43700;SDS011;58809;47.984;7.964;2022-07-22T02:03:16;11.60;;;10.40;;
43700;SDS011;58809;47.984;7.964;2022-07-22T02:06:18;12.43;;;11.13;;
43700;SDS011;58809;47.984;7.964;2022-07-22T02:09:20;12.55;;;11.35;;
43700;SDS011;58809;47.984;7.964;2022-07-22T02:12:26;12.13;;;10.98;;
43700;SDS011;58809;47.984;7.964;2022-07-22T02:15:27;15.63;;;11.18;;
43700;SDS011;58809;47.984;7.964;2022-07-22T02:18:33;14.48;;;11.88;;
43700;SDS011;58809;47.984;7.964;2022-07-22T02:21:35;12.30;;;10.98;;
43700;SDS011;58809;47.984;7.964;2022-07-22T02:24:37;12.50;;;10.85;;
43700;SDS011;58809;47.984;7.964;2022-07-22T02:27:39;12.05;;;10.77;;
43700;SDS011;58809;47.984;7.964;2022-07-22T02:30:42;11.77;;;10.55;;
43700;SDS011;58809;47.984;7.964;2022-07-22T02:33:44;12.20;;;10.63;;
43700;SDS011;58809;47.984;7.964;2022-07-22T02:36:45;13.00;;;10.98;;
43700;SDS011;58809;47.984;7.964;2022-07-22T02:39:48;12.10;;;10.80;;
43700;SDS011;58809;47.984;7.964;2022-07-22T02:42:49;12.10;;;10.80;;
43700;SDS011;58809;47.984;7.964;2022-07-22T02:45:52;12.43;;;10.60;;
43700;SDS011;58809;47.984;7.964;2022-07-22T02:48:54;12.07;;;10.77;;
43700;SDS011;58809;47.984;7.964;2022-07-22T02:51:57;12.43;;;11.00;;
43700;SDS011;58809;47.984;7.964;2022-07-22T02:54:58;12.32;;;11.02;;
43700;SDS011;58809;47.984;7.964;2022-07-22T02:58:03;13.05;;;9.85;;
43700;SDS011;58809;47.984;7.964;2022-07-22T03:01:07;12.50;;;11.07;;
43700;SDS011;58809;47.984;7.964;2022-07-22T03:04:17;11.50;;;10.30;;
43700;SDS011;58809;47.984;7.964;2022-07-22T03:07:19;12.18;;;10.98;;
43700;SDS011;58809;47.984;7.964;2022-07-22T03:10:21;13.25;;;11.32;;
43700;SDS011;58809;47.984;7.964;2022-07-22T03:13:23;13.18;;;11.13;;
43700;SDS011;58809;47.984;7.964;2022-07-22T03:16:26;13.57;;;11.43;;
43700;SDS011;58809;47.984;7.964;2022-07-22T03:19:29;12.90;;;11.05;;
43700;SDS011;58809;47.984;7.964;2022-07-22T03:22:31;12.82;;;10.95;;
43700;SDS011;58809;47.984;7.964;2022-07-22T03:25:34;13.73;;;11.82;;
43700;SDS011;58809;47.984;7.964;2022-07-22T03:28:36;12.50;;;11.30;;
43700;SDS011;58809;47.984;7.964;2022-07-22T03:31:38;13.63;;;12.27;;
43700;SDS011;58809;47.984;7.964;2022-07-22T03:34:40;13.82;;;12.40;;
43700;SDS011;58809;47.984;7.964;2022-07-22T03:37:42;13.40;;;11.95;;
43700;SDS011;58809;47.984;7.964;2022-07-22T03:40:46;13.55;;;11.82;;
43700;SDS011;58809;47.984;7.964;2022-07-22T03:43:48;12.10;;;10.88;;
43700;SDS011;58809;47.984;7.964;2022-07-22T03:46:51;13.30;;;11.90;;
43700;SDS011;58809;47.984;7.964;2022-07-22T03:49:53;12.63;;;10.98;;
43700;SDS011;58809;47.984;7.964;2022-07-22T03:53:00;12.50;;;11.25;;
43700;SDS011;58809;47.984;7.964;2022-07-22T03:56:02;12.20;;;10.90;;
43700;SDS011;58809;47.984;7.964;2022-07-22T03:59:05;13.65;;;11.20;;
43700;SDS011;58809;47.984;7.964;2022-07-22T04:02:07;12.60;;;11.40;;
43700;SDS011;58809;47.984;7.964;2022-07-22T04:05:10;13.27;;;11.10;;
43700;SDS011;58809;47.984;7.964;2022-07-22T04:08:11;13.05;;;10.70;;
43700;SDS011;58809;47.984;7.964;2022-07-22T04:11:14;13.40;;;10.98;;
43700;SDS011;58809;47.984;7.964;2022-07-22T04:14:16;12.82;;;11.35;;
43700;SDS011;58809;47.984;7.964;2022-07-22T04:17:19;12.85;;;11.52;;
43700;SDS011;58809;47.984;7.964;2022-07-22T04:20:21;15.55;;;12.02;;
43700;SDS011;58809;47.984;7.964;2022-07-22T04:23:41;12.45;;;10.70;;
43700;SDS011;58809;47.984;7.964;2022-07-22T04:26:53;12.75;;;10.88;;
43700;SDS011;58809;47.984;7.964;2022-07-22T04:29:56;15.87;;;11.83;;
43700;SDS011;58809;47.984;7.964;2022-07-22T04:32:57;14.02;;;12.52;;
43700;SDS011;58809;47.984;7.964;2022-07-22T04:36:00;12.38;;;11.18;;
43700;SDS011;58809;47.984;7.964;2022-07-22T04:39:02;12.55;;;10.73;;
43700;SDS011;58809;47.984;7.964;2022-07-22T04:42:03;12.98;;;11.57;;
43700;SDS011;58809;47.984;7.964;2022-07-22T04:45:06;13.50;;;12.10;;
43700;SDS011;58809;47.984;7.964;2022-07-22T04:48:08;15.10;;;12.02;;
43700;SDS011;58809;47.984;7.964;2022-07-22T04:51:10;13.82;;;11.90;;
43700;SDS011;58809;47.984;7.964;2022-07-22T04:54:13;14.20;;;12.70;;
43700;SDS011;58809;47.984;7.964;2022-07-22T05:00:19;13.50;;;12.20;;
43700;SDS011;58809;47.984;7.964;2022-07-22T05:03:29;13.98;;;12.00;;
43700;SDS011;58809;47.984;7.964;2022-07-22T05:06:32;12.70;;;11.32;;
43700;SDS011;58809;47.984;7.964;2022-07-22T05:09:35;15.07;;;12.55;;
43700;SDS011;58809;47.984;7.964;2022-07-22T05:12:37;12.23;;;11.10;;
43700;SDS011;58809;47.984;7.964;2022-07-22T05:15:38;18.50;;;12.38;;
43700;SDS011;58809;47.984;7.964;2022-07-22T05:18:40;12.57;;;11.32;;
43700;SDS011;58809;47.984;7.964;2022-07-22T05:21:45;13.88;;;12.13;;
43700;SDS011;58809;47.984;7.964;2022-07-22T05:24:47;12.20;;;10.90;;
43700;SDS011;58809;47.984;7.964;2022-07-22T05:27:49;13.23;;;11.23;;
43700;SDS011;58809;47.984;7.964;2022-07-22T05:31:00;13.93;;;11.18;;
43700;SDS011;58809;47.984;7.964;2022-07-22T05:34:03;11.93;;;10.67;;
43700;SDS011;58809;47.984;7.964;2022-07-22T05:37:13;12.45;;;11.18;;
43700;SDS011;58809;47.984;7.964;2022-07-22T05:40:17;12.32;;;11.13;;
43700;SDS011;58809;47.984;7.964;2022-07-22T05:43:19;11.63;;;10.43;;
43700;SDS011;58809;47.984;7.964;2022-07-22T05:46:20;13.30;;;11.90;;
43700;SDS011;58809;47.984;7.964;2022-07-22T05:49:22;13.30;;;11.15;;
43700;SDS011;58809;47.984;7.964;2022-07-22T05:52:31;12.38;;;11.18;;
43700;SDS011;58809;47.984;7.964;2022-07-22T05:55:33;11.48;;;10.38;;
43700;SDS011;58809;47.984;7.964;2022-07-22T05:58:34;14.02;;;10.50;;
43700;SDS011;58809;47.984;7.964;2022-07-22T06:01:36;12.23;;;11.07;;
43700;SDS011;58809;47.984;7.964;2022-07-22T06:04:53;12.18;;;10.88;;
43700;SDS011;58809;47.984;7.964;2022-07-22T06:07:56;12.97;;;11.63;;
43700;SDS011;58809;47.984;7.964;2022-07-22T06:11:27;14.23;;;11.77;;
43700;SDS011;58809;47.984;7.964;2022-07-22T06:14:29;12.48;;;11.20;;
43700;SDS011;58809;47.984;7.964;2022-07-22T06:17:31;13.68;;;12.23;;
43700;SDS011;58809;47.984;7.964;2022-07-22T06:20:34;13.82;;;12.18;;
43700;SDS011;58809;47.984;7.964;2022-07-22T06:23:37;14.15;;;12.35;;
43700;SDS011;58809;47.984;7.964;2022-07-22T06:26:39;13.80;;;12.50;;
43700;SDS011;58809;47.984;7.964;2022-07-22T06:29:41;13.48;;;12.10;;
43700;SDS011;58809;47.984;7.964;2022-07-22T06:32:42;15.25;;;12.75;;
43700;SDS011;58809;47.984;7.964;2022-07-22T06:35:51;13.10;;;11.82;;
43700;SDS011;58809;47.984;7.964;2022-07-22T06:38:53;14.13;;;11.70;;
43700;SDS011;58809;47.984;7.964;2022-07-22T06:42:11;13.63;;;12.02;;
43700;SDS011;58809;47.984;7.964;2022-07-22T06:45:30;14.63;;;12.23;;
43700;SDS011;58809;47.984;7.964;2022-07-22T06:48:50;14.40;;;11.73;;
43700;SDS011;58809;47.984;7.964;2022-07-22T06:51:53;15.60;;;11.80;;
43700;SDS011;58809;47.984;7.964;2022-07-22T06:54:56;14.40;;;11.48;;
43700;SDS011;58809;47.984;7.964;2022-07-22T06:58:02;13.10;;;11.80;;
43700;SDS011;58809;47.984;7.964;2022-07-22T07:01:04;12.20;;;10.88;;
43700;SDS011;58809;47.984;7.964;2022-07-22T07:04:11;11.57;;;10.52;;
43700;SDS011;58809;47.984;7.964;2022-07-22T07:07:14;12.82;;;11.48;;
43700;SDS011;58809;47.984;7.964;2022-07-22T07:10:30;12.63;;;11.23;;
43700;SDS011;58809;47.984;7.964;2022-07-22T07:13:43;12.38;;;11.02;;
43700;SDS011;58809;47.984;7.964;2022-07-22T07:16:44;12.55;;;11.25;;
43700;SDS011;58809;47.984;7.964;2022-07-22T07:19:46;12.07;;;10.95;;
43700;SDS011;58809;47.984;7.964;2022-07-22T07:22:48;12.90;;;11.60;;
43700;SDS011;58809;47.984;7.964;2022-07-22T07:25:50;12.85;;;10.75;;
43700;SDS011;58809;47.984;7.964;2022-07-22T07:28:52;12.55;;;11.25;;
43700;SDS011;58809;47.984;7.964;2022-07-22T07:32:04;14.13;;;11.25;;
43700;SDS011;58809;47.984;7.964;2022-07-22T07:35:06;12.75;;;11.43;;
43700;SDS011;58809;47.984;7.964;2022-07-22T07:38:08;13.23;;;11.93;;
43700;SDS011;58809;47.984;7.964;2022-07-22T07:41:12;12.95;;;11.60;;
43700;SDS011;58809;47.984;7.964;2022-07-22T07:44:15;13.23;;;11.73;;
43700;SDS011;58809;47.984;7.964;2022-07-22T07:47:17;13.00;;;11.77;;
43700;SDS011;58809;47.984;7.964;2022-07-22T07:50:22;14.20;;;12.07;;
43700;SDS011;58809;47.984;7.964;2022-07-22T07:53:24;12.82;;;11.52;;
43700;SDS011;58809;47.984;7.964;2022-07-22T07:56:27;12.57;;;11.10;;
43700;SDS011;58809;47.984;7.964;2022-07-22T07:59:29;13.85;;;12.25;;
43700;SDS011;58809;47.984;7.964;2022-07-22T08:02:35;13.00;;;11.77;;
43700;SDS011;58809;47.984;7.964;2022-07-22T08:05:37;12.35;;;11.10;;
43700;SDS011;58809;47.984;7.964;2022-07-22T08:08:45;12.30;;;11.10;;
43700;SDS011;58809;47.984;7.964;2022-07-22T08:11:52;13.13;;;11.88;;
43700;SDS011;58809;47.984;7.964;2022-07-22T08:15:15;16.13;;;11.95;;
43700;SDS011;58809;47.984;7.964;2022-07-22T08:18:40;14.63;;;12.00;;
43700;SDS011;58809;47.984;7.964;2022-07-22T08:21:42;13.57;;;11.85;;
43700;SDS011;58809;47.984;7.964;2022-07-22T08:25:02;16.30;;;12.23;;
43700;SDS011;58809;47.984;7.964;2022-07-22T08:28:04;12.50;;;11.02;;
43700;SDS011;58809;47.984;7.964;2022-07-22T08:31:07;12.57;;;11.27;;
43700;SDS011;58809;47.984;7.964;2022-07-22T08:34:09;13.27;;;11.88;;
43700;SDS011;58809;47.984;7.964;2022-07-22T08:37:10;12.60;;;11.32;;
43700;SDS011;58809;47.984;7.964;2022-07-22T08:40:12;13.07;;;11.77;;
43700;SDS011;58809;47.984;7.964;2022-07-22T08:43:15;13.20;;;11.95;;
43700;SDS011;58809;47.984;7.964;2022-07-22T08:46:17;13.52;;;12.15;;
43700;SDS011;58809;47.984;7.964;2022-07-22T08:49:45;13.32;;;12.13;;
43700;SDS011;58809;47.984;7.964;2022-07-22T08:53:08;12.60;;;11.40;;
43700;SDS011;58809;47.984;7.964;2022-07-22T08:56:13;11.38;;;9.90;;
43700;SDS011;58809;47.984;7.964;2022-07-22T08:59:15;12.57;;;11.35;;
43700;SDS011;58809;47.984;7.964;2022-07-22T09:02:17;13.25;;;11.98;;
43700;SDS011;58809;47.984;7.964;2022-07-22T09:05:20;13.50;;;12.20;;
43700;SDS011;58809;47.984;7.964;2022-07-22T09:08:52;12.63;;;11.43;;
43700;SDS011;58809;47.984;7.964;2022-07-22T09:12:26;13.65;;;12.25;;
43700;SDS011;58809;47.984;7.964;2022-07-22T09:15:47;12.23;;;10.88;;
43700;SDS011;58809;47.984;7.964;2022-07-22T09:19:10;13.00;;;11.77;;
43700;SDS011;58809;47.984;7.964;2022-07-22T09:22:38;12.45;;;11.30;;
43700;SDS011;58809;47.984;7.964;2022-07-22T09:25:48;13.02;;;11.73;;
43700;SDS011;58809;47.984;7.964;2022-07-22T09:28:54;12.63;;;11.43;;
43700;SDS011;58809;47.984;7.964;2022-07-22T09:32:01;12.57;;;11.38;;
43700;SDS011;58809;47.984;7.964;2022-07-22T09:35:43;12.52;;;11.27;;
43700;SDS011;58809;47.984;7.964;2022-07-22T09:38:50;13.20;;;11.90;;
43700;SDS011;58809;47.984;7.964;2022-07-22T09:45:05;12.88;;;11.63;;
43700;SDS011;58809;47.984;7.964;2022-07-22T09:48:14;15.05;;;11.73;;
43700;SDS011;58809;47.984;7.964;2022-07-22T09:51:33;13.77;;;12.30;;
43700;SDS011;58809;47.984;7.964;2022-07-22T09:54:44;14.02;;;12.73;;
43700;SDS011;58809;47.984;7.964;2022-07-22T09:57:46;14.55;;;11.48;;
43700;SDS011;58809;47.984;7.964;2022-07-22T10:00:49;13.95;;;12.68;;
43700;SDS011;58809;47.984;7.964;2022-07-22T10:03:55;12.55;;;11.27;;
43700;SDS011;58809;47.984;7.964;2022-07-22T10:06:57;12.75;;;11.55;;
43700;SDS011;58809;47.984;7.964;2022-07-22T10:10:05;12.93;;;11.68;;
43700;SDS011;58809;47.984;7.964;2022-07-22T10:13:08;13.07;;;11.43;;
43700;SDS011;58809;47.984;7.964;2022-07-22T10:16:10;13.18;;;11.88;;
43700;SDS011;58809;47.984;7.964;2022-07-22T10:19:12;12.60;;;11.38;;
43700;SDS011;58809;47.984;7.964;2022-07-22T10:25:54;12.02;;;11.02;;
43700;SDS011;58809;47.984;7.964;2022-07-22T10:38:27;12.10;;;10.95;;
43700;SDS011;58809;47.984;7.964;2022-07-22T10:41:38;12.18;;;11.00;;
43700;SDS011;58809;47.984;7.964;2022-07-22T10:44:48;13.35;;;11.98;;
43700;SDS011;58809;47.984;7.964;2022-07-22T10:47:58;12.80;;;10.52;;
43700;SDS011;58809;47.984;7.964;2022-07-22T10:51:13;12.15;;;11.05;;
43700;SDS011;58809;47.984;7.964;2022-07-22T10:54:18;12.90;;;11.75;;
43700;SDS011;58809;47.984;7.964;2022-07-22T10:57:37;12.38;;;10.75;;
43700;SDS011;58809;47.984;7.964;2022-07-22T11:00:39;12.63;;;11.02;;
43700;SDS011;58809;47.984;7.964;2022-07-22T11:03:42;12.98;;;11.68;;
43700;SDS011;58809;47.984;7.964;2022-07-22T11:06:46;12.65;;;11.45;;
43700;SDS011;58809;47.984;7.964;2022-07-22T11:09:48;12.10;;;10.82;;
43700;SDS011;58809;47.984;7.964;2022-07-22T11:12:50;12.65;;;11.18;;
43700;SDS011;58809;47.984;7.964;2022-07-22T11:15:52;12.05;;;10.85;;
43700;SDS011;58809;47.984;7.964;2022-07-22T11:18:55;12.52;;;11.27;;
43700;SDS011;58809;47.984;7.964;2022-07-22T11:22:03;12.65;;;11.40;;
43700;SDS011;58809;47.984;7.964;2022-07-22T11:25:07;11.88;;;10.77;;
43700;SDS011;58809;47.984;7.964;2022-07-22T11:28:09;12.73;;;11.60;;
43700;SDS011;58809;47.984;7.964;2022-07-22T11:31:16;11.80;;;10.80;;
43700;SDS011;58809;47.984;7.964;2022-07-22T11:34:19;13.38;;;11.45;;
43700;SDS011;58809;47.984;7.964;2022-07-22T11:37:25;12.13;;;10.93;;
43700;SDS011;58809;47.984;7.964;2022-07-22T11:40:31;12.60;;;11.57;;
43700;SDS011;58809;47.984;7.964;2022-07-22T11:43:38;12.25;;;11.02;;
43700;SDS011;58809;47.984;7.964;2022-07-22T11:46:40;12.95;;;11.68;;
43700;SDS011;58809;47.984;7.964;2022-07-22T11:49:44;13.07;;;12.00;;
43700;SDS011;58809;47.984;7.964;2022-07-22T11:52:52;12.32;;;11.23;;
43700;SDS011;58809;47.984;7.964;2022-07-22T11:56:01;12.18;;;11.15;;
43700;SDS011;58809;47.984;7.964;2022-07-22T11:59:04;13.00;;;11.77;;
43700;SDS011;58809;47.984;7.964;2022-07-22T12:02:07;12.13;;;11.02;;
43700;SDS011;58809;47.984;7.964;2022-07-22T12:05:11;12.88;;;11.70;;
43700;SDS011;58809;47.984;7.964;2022-07-22T12:08:34;12.70;;;11.60;;
43700;SDS011;58809;47.984;7.964;2022-07-22T12:11:41;12.13;;;10.93;;
43700;SDS011;58809;47.984;7.964;2022-07-22T12:14:45;11.93;;;10.90;;
43700;SDS011;58809;47.984;7.964;2022-07-22T12:17:49;12.40;;;11.30;;
43700;SDS011;58809;47.984;7.964;2022-07-22T12:20:51;12.25;;;11.15;;
43700;SDS011;58809;47.984;7.964;2022-07-22T12:24:00;13.27;;;12.02;;
43700;SDS011;58809;47.984;7.964;2022-07-22T12:27:05;12.23;;;11.13;;
43700;SDS011;58809;47.984;7.964;2022-07-22T12:30:12;13.60;;;12.05;;
43700;SDS011;58809;47.984;7.964;2022-07-22T12:33:14;12.90;;;11.70;;
43700;SDS011;58809;47.984;7.964;2022-07-22T12:36:17;12.30;;;11.20;;
43700;SDS011;58809;47.984;7.964;2022-07-22T12:39:20;11.50;;;10.50;;
43700;SDS011;58809;47.984;7.964;2022-07-22T12:42:22;12.52;;;11.40;;
43700;SDS011;58809;47.984;7.964;2022-07-22T12:45:26;12.93;;;11.75;;
43700;SDS011;58809;47.984;7.964;2022-07-22T12:48:29;14.25;;;11.15;;
43700;SDS011;58809;47.984;7.964;2022-07-22T12:51:30;12.18;;;11.07;;
43700;SDS011;58809;47.984;7.964;2022-07-22T12:54:33;12.25;;;11.25;;
43700;SDS011;58809;47.984;7.964;2022-07-22T12:57:35;11.90;;;10.75;;
43700;SDS011;58809;47.984;7.964;2022-07-22T13:00:38;11.13;;;10.13;;
43700;SDS011;58809;47.984;7.964;2022-07-22T13:06:41;11.93;;;10.95;;
43700;SDS011;58809;47.984;7.964;2022-07-22T13:09:42;10.27;;;9.47;;
43700;SDS011;58809;47.984;7.964;2022-07-22T13:12:44;10.32;;;9.63;;
43700;SDS011;58809;47.984;7.964;2022-07-22T13:15:46;11.55;;;10.45;;
43700;SDS011;58809;47.984;7.964;2022-07-22T13:18:49;10.90;;;9.90;;
43700;SDS011;58809;47.984;7.964;2022-07-22T13:21:52;11.02;;;10.13;;
43700;SDS011;58809;47.984;7.964;2022-07-22T13:24:53;10.98;;;9.98;;
43700;SDS011;58809;47.984;7.964;2022-07-22T13:27:55;10.18;;;9.35;;
43700;SDS011;58809;47.984;7.964;2022-07-22T13:30:57;11.60;;;10.63;;
43700;SDS011;58809;47.984;7.964;2022-07-22T13:40:02;10.40;;;9.50;;
43700;SDS011;58809;47.984;7.964;2022-07-22T13:43:05;11.20;;;10.27;;
43700;SDS011;58809;47.984;7.964;2022-07-22T13:46:06;10.48;;;9.68;;
43700;SDS011;58809;47.984;7.964;2022-07-22T13:49:08;11.05;;;10.05;;
43700;SDS011;58809;47.984;7.964;2022-07-22T13:55:12;11.27;;;10.32;;
43700;SDS011;58809;47.984;7.964;2022-07-22T13:58:14;10.68;;;9.85;;
43700;SDS011;58809;47.984;7.964;2022-07-22T14:01:15;11.40;;;10.13;;
43700;SDS011;58809;47.984;7.964;2022-07-22T14:07:19;10.65;;;9.68;;
43700;SDS011;58809;47.984;7.964;2022-07-22T14:10:21;10.95;;;9.95;;
43700;SDS011;58809;47.984;7.964;2022-07-22T14:16:24;10.70;;;9.90;;
43700;SDS011;58809;47.984;7.964;2022-07-22T14:19:54;10.70;;;9.80;;
43700;SDS011;58809;47.984;7.964;2022-07-22T14:23:00;10.70;;;9.68;;
43700;SDS011;58809;47.984;7.964;2022-07-22T14:26:02;9.77;;;8.98;;
43700;SDS011;58809;47.984;7.964;2022-07-22T14:29:04;9.85;;;8.93;;
43700;SDS011;58809;47.984;7.964;2022-07-22T14:32:06;10.30;;;9.50;;
43700;SDS011;58809;47.984;7.964;2022-07-22T14:35:08;10.43;;;9.60;;
43700;SDS011;58809;47.984;7.964;2022-07-22T14:38:10;10.32;;;9.45;;
43700;SDS011;58809;47.984;7.964;2022-07-22T14:41:11;9.88;;;9.00;;
43700;SDS011;58809;47.984;7.964;2022-07-22T14:47:14;8.20;;;7.50;;
43700;SDS011;58809;47.984;7.964;2022-07-22T14:50:16;7.75;;;7.05;;
43700;SDS011;58809;47.984;7.964;2022-07-22T14:53:18;8.35;;;7.60;;
43700;SDS011;58809;47.984;7.964;2022-07-22T14:56:19;8.63;;;7.78;;
43700;SDS011;58809;47.984;7.964;2022-07-22T14:59:21;7.93;;;7.22;;
43700;SDS011;58809;47.984;7.964;2022-07-22T15:02:26;8.30;;;7.53;;
43700;SDS011;58809;47.984;7.964;2022-07-22T15:08:29;8.10;;;7.30;;
43700;SDS011;58809;47.984;7.964;2022-07-22T15:11:31;7.65;;;6.97;;
43700;SDS011;58809;47.984;7.964;2022-07-22T15:14:33;7.90;;;7.20;;
43700;SDS011;58809;47.984;7.964;2022-07-22T15:17:37;8.52;;;7.72;;
43700;SDS011;58809;47.984;7.964;2022-07-22T15:20:39;8.02;;;7.32;;
43700;SDS011;58809;47.984;7.964;2022-07-22T15:23:41;8.00;;;7.35;;
43700;SDS011;58809;47.984;7.964;2022-07-22T15:26:43;7.70;;;7.10;;
43700;SDS011;58809;47.984;7.964;2022-07-22T15:32:46;8.13;;;7.32;;
43700;SDS011;58809;47.984;7.964;2022-07-22T15:35:48;7.82;;;7.13;;
43700;SDS011;58809;47.984;7.964;2022-07-22T15:38:49;8.05;;;7.05;;
43700;SDS011;58809;47.984;7.964;2022-07-22T15:41:55;7.80;;;7.10;;
43700;SDS011;58809;47.984;7.964;2022-07-22T15:44:56;8.30;;;7.50;;
43700;SDS011;58809;47.984;7.964;2022-07-22T15:47:58;8.40;;;7.60;;
43700;SDS011;58809;47.984;7.964;2022-07-22T15:51:00;8.77;;;7.97;;
43700;SDS011;58809;47.984;7.964;2022-07-22T15:54:07;8.68;;;7.88;;
43700;SDS011;58809;47.984;7.964;2022-07-22T15:57:12;8.85;;;7.95;;
43700;SDS011;58809;47.984;7.964;2022-07-22T16:00:32;9.25;;;8.40;;
43700;SDS011;58809;47.984;7.964;2022-07-22T16:03:34;9.13;;;8.27;;
43700;SDS011;58809;47.984;7.964;2022-07-22T16:06:36;9.27;;;8.48;;
43700;SDS011;58809;47.984;7.964;2022-07-22T16:09:37;10.20;;;9.25;;
43700;SDS011;58809;47.984;7.964;2022-07-22T16:12:39;9.60;;;8.73;;
43700;SDS011;58809;47.984;7.964;2022-07-22T16:15:40;9.85;;;8.95;;
43700;SDS011;58809;47.984;7.964;2022-07-22T16:18:42;10.00;;;9.00;;
43700;SDS011;58809;47.984;7.964;2022-07-22T16:21:45;10.75;;;8.73;;
43700;SDS011;58809;47.984;7.964;2022-07-22T16:24:47;9.80;;;8.80;;
43700;SDS011;58809;47.984;7.964;2022-07-22T16:27:48;9.63;;;8.73;;
43700;SDS011;58809;47.984;7.964;2022-07-22T16:30:50;10.02;;;8.60;;
43700;SDS011;58809;47.984;7.964;2022-07-22T16:33:52;10.15;;;9.15;;
43700;SDS011;58809;47.984;7.964;2022-07-22T16:36:54;9.60;;;8.48;;
43700;SDS011;58809;47.984;7.964;2022-07-22T16:39:57;9.68;;;8.68;;
43700;SDS011;58809;47.984;7.964;2022-07-22T16:42:59;9.73;;;8.77;;
43700;SDS011;58809;47.984;7.964;2022-07-22T16:46:01;9.80;;;8.90;;
43700;SDS011;58809;47.984;7.964;2022-07-22T16:49:03;9.70;;;8.80;;
43700;SDS011;58809;47.984;7.964;2022-07-22T16:52:09;10.15;;;9.15;;
43700;SDS011;58809;47.984;7.964;2022-07-22T16:55:11;10.52;;;9.52;;
43700;SDS011;58809;47.984;7.964;2022-07-22T16:58:12;10.27;;;8.88;;
43700;SDS011;58809;47.984;7.964;2022-07-22T17:01:15;9.80;;;8.87;;
43700;SDS011;58809;47.984;7.964;2022-07-22T17:04:17;10.30;;;9.40;;
43700;SDS011;58809;47.984;7.964;2022-07-22T17:07:18;9.88;;;9.07;;
43700;SDS011;58809;47.984;7.964;2022-07-22T17:10:21;10.33;;;9.23;;
43700;SDS011;58809;47.984;7.964;2022-07-22T17:13:23;9.20;;;8.35;;
43700;SDS011;58809;47.984;7.964;2022-07-22T17:16:30;9.90;;;9.00;;
43700;SDS011;58809;47.984;7.964;2022-07-22T17:19:31;10.38;;;9.25;;
43700;SDS011;58809;47.984;7.964;2022-07-22T17:22:34;10.25;;;9.27;;
43700;SDS011;58809;47.984;7.964;2022-07-22T17:25:36;24.13;;;17.92;;
43700;SDS011;58809;47.984;7.964;2022-07-22T17:28:38;10.73;;;9.73;;
43700;SDS011;58809;47.984;7.964;2022-07-22T17:31:39;10.27;;;9.23;;
43700;SDS011;58809;47.984;7.964;2022-07-22T17:34:41;9.48;;;8.57;;
43700;SDS011;58809;47.984;7.964;2022-07-22T17:37:42;9.77;;;8.77;;
43700;SDS011;58809;47.984;7.964;2022-07-22T17:40:44;10.38;;;9.18;;
43700;SDS011;58809;47.984;7.964;2022-07-22T17:43:46;11.95;;;9.45;;
43700;SDS011;58809;47.984;7.964;2022-07-22T17:46:47;9.85;;;8.95;;
43700;SDS011;58809;47.984;7.964;2022-07-22T17:49:50;10.52;;;9.52;;
43700;SDS011;58809;47.984;7.964;2022-07-22T17:52:51;9.65;;;8.75;;
43700;SDS011;58809;47.984;7.964;2022-07-22T17:55:53;11.35;;;10.10;;
43700;SDS011;58809;47.984;7.964;2022-07-22T17:59:14;13.98;;;10.15;;
43700;SDS011;58809;47.984;7.964;2022-07-22T18:02:16;11.10;;;10.00;;
43700;SDS011;58809;47.984;7.964;2022-07-22T18:05:18;11.70;;;10.00;;
43700;SDS011;58809;47.984;7.964;2022-07-22T18:08:20;14.55;;;9.85;;
43700;SDS011;58809;47.984;7.964;2022-07-22T18:59:07;11.57;;;10.38;;
43700;SDS011;58809;47.984;7.964;2022-07-22T19:02:09;11.07;;;10.02;;
43700;SDS011;58809;47.984;7.964;2022-07-22T19:05:10;10.32;;;9.32;;
43700;SDS011;58809;47.984;7.964;2022-07-22T19:08:12;14.40;;;10.52;;
43700;SDS011;58809;47.984;7.964;2022-07-22T19:11:14;10.57;;;9.63;;
43700;SDS011;58809;47.984;7.964;2022-07-22T19:14:15;15.30;;;10.52;;
43700;SDS011;58809;47.984;7.964;2022-07-22T19:17:17;13.38;;;9.73;;
43700;SDS011;58809;47.984;7.964;2022-07-22T19:20:18;12.45;;;11.15;;
43700;SDS011;58809;47.984;7.964;2022-07-22T19:23:22;10.85;;;9.75;;
43700;SDS011;58809;47.984;7.964;2022-07-22T19:26:23;10.80;;;9.70;;
43700;SDS011;58809;47.984;7.964;2022-07-22T19:29:25;11.18;;;9.82;;
43700;SDS011;58809;47.984;7.964;2022-07-22T19:32:26;11.23;;;10.05;;
43700;SDS011;58809;47.984;7.964;2022-07-22T19:35:28;13.77;;;10.15;;
43700;SDS011;58809;47.984;7.964;2022-07-22T19:38:30;10.95;;;10.05;;